Time;durP1;ratioP1;P1;durP2;ratioP2;P2;SDS_P1;SDS_P2;PMS_P1;PMS_P2;Temp;Humidity;BMP_temperature;BMP_pressure;BME280_temperature;BME280_humidity;BME280_pressure;Samples;Min_cycle;Max_cycle;Signal;HPM_P1;HPM_P2
2021/12/28 00:01:18;;;;;;;17.42;16.35;;;8.60;93.40;;;;;;5036085;28;20285;-72
2021/12/28 00:03:46;;;;;;;15.85;15.05;;;8.60;93.20;;;;;;5036176;28;20688;-72
2021/12/28 00:06:15;;;;;;;17.05;15.75;;;8.60;93.10;;;;;;5036009;28;20658;-72
2021/12/28 00:08:42;;;;;;;15.15;14.35;;;8.60;94.40;;;;;;5035909;28;20227;-72
2021/12/28 00:11:10;;;;;;;15.68;14.35;;;8.60;93.80;;;;;;5035838;28;20197;-72
2021/12/28 00:13:40;;;;;;;16.30;15.30;;;8.60;93.90;;;;;;5036342;28;20570;-72
2021/12/28 00:18:57;;;;;;;15.52;14.63;;;8.60;92.90;;;;;;5030352;28;20216;-72
2021/12/28 00:21:24;;;;;;;16.05;14.90;;;8.70;92.40;;;;;;5035733;28;20296;-72
2021/12/28 00:23:51;;;;;;;16.27;15.40;;;8.70;92.60;;;;;;5035887;28;20197;-72
2021/12/28 00:26:20;;;;;;;15.75;14.75;;;8.70;92.30;;;;;;5036046;28;20753;-72
2021/12/28 00:28:47;;;;;;;16.48;15.25;;;8.60;92.70;;;;;;5035555;28;20217;-72
2021/12/28 00:31:15;;;;;;;16.13;15.10;;;8.60;92.90;;;;;;5035109;28;20609;-72
2021/12/28 00:33:44;;;;;;;15.50;14.70;;;8.50;92.90;;;;;;5035388;28;20216;-72
2021/12/28 00:36:13;;;;;;;16.85;15.65;;;8.50;92.80;;;;;;5035407;28;20224;-72
2021/12/28 00:38:40;;;;;;;15.52;14.70;;;8.40;93.00;;;;;;5035894;28;20222;-72
2021/12/28 00:41:07;;;;;;;17.13;16.10;;;8.40;93.20;;;;;;5035035;28;20205;-72
2021/12/28 00:43:35;;;;;;;77.22;20.60;;;8.40;93.30;;;;;;5035363;28;20201;-72
2021/12/28 00:46:02;;;;;;;17.88;16.55;;;8.30;94.60;;;;;;5035085;28;20197;-72
2021/12/28 00:48:30;;;;;;;17.77;16.60;;;8.30;94.20;;;;;;5035172;28;20197;-72
2021/12/28 00:50:57;;;;;;;16.23;15.05;;;8.30;93.90;;;;;;5035196;28;20557;-72
2021/12/28 00:53:25;;;;;;;17.45;16.13;;;8.40;93.40;;;;;;5034994;28;20204;-72
2021/12/28 00:55:52;;;;;;;16.17;15.18;;;8.40;93.10;;;;;;5035236;28;20236;-72
2021/12/28 00:58:21;;;;;;;16.52;15.38;;;8.30;92.70;;;;;;5035077;28;20267;-72
2021/12/28 01:00:48;;;;;;;17.00;15.98;;;8.20;92.90;;;;;;5034825;28;20223;-72
2021/12/28 01:03:16;;;;;;;17.35;16.15;;;8.20;93.60;;;;;;5035111;28;20197;-72
2021/12/28 01:05:43;;;;;;;16.33;15.32;;;8.20;93.60;;;;;;5034913;28;20199;-72
2021/12/28 01:08:11;;;;;;;17.30;16.20;;;8.20;93.50;;;;;;5034953;28;20225;-72
2021/12/28 01:10:42;;;;;;;16.75;15.55;;;8.20;93.20;;;;;;5034644;28;20197;-72
2021/12/28 01:13:09;;;;;;;17.17;15.70;;;8.20;93.00;;;;;;5034796;28;20682;-72
2021/12/28 01:15:38;;;;;;;16.20;14.95;;;8.20;92.80;;;;;;5042936;22;20243;-72
2021/12/28 01:18:05;;;;;;;16.30;15.05;;;8.20;92.80;;;;;;5035490;28;20197;-72
2021/12/28 01:20:33;;;;;;;16.77;15.25;;;8.20;92.80;;;;;;5034789;28;20263;-72
2021/12/28 01:23:00;;;;;;;16.48;15.57;;;8.30;92.70;;;;;;5035351;28;20233;-72
2021/12/28 01:25:27;;;;;;;17.35;16.15;;;8.30;92.50;;;;;;5034882;28;20201;-72
2021/12/28 01:27:56;;;;;;;16.50;14.95;;;8.40;92.30;;;;;;5034681;28;20292;-72
2021/12/28 01:30:25;;;;;;;17.20;15.65;;;8.40;92.10;;;;;;5034465;28;20213;-73
2021/12/28 01:32:53;;;;;;;16.90;15.70;;;8.30;91.90;;;;;;5034848;28;20207;-72
2021/12/28 01:35:21;;;;;;;16.58;15.52;;;8.20;92.00;;;;;;5034499;28;20224;-72
2021/12/28 01:37:50;;;;;;;17.63;15.95;;;8.20;92.30;;;;;;5034485;28;20197;-72
2021/12/28 01:40:20;;;;;;;25.25;17.15;;;8.20;92.20;;;;;;5033659;28;20272;-72
2021/12/28 01:43:01;;;;;;;48.53;18.50;;;8.10;92.80;;;;;;5034401;28;20581;-72
2021/12/28 01:45:42;;;;;;;17.63;16.20;;;8.00;93.70;;;;;;5034181;28;20229;-72
2021/12/28 01:48:11;;;;;;;17.65;16.20;;;8.00;93.70;;;;;;5034335;28;20725;-72
2021/12/28 01:50:39;;;;;;;17.35;16.08;;;8.00;93.20;;;;;;5034044;28;20199;-72
2021/12/28 01:53:07;;;;;;;18.10;16.67;;;8.10;93.00;;;;;;5034155;28;20646;-72
2021/12/28 01:55:35;;;;;;;17.45;16.25;;;8.10;92.60;;;;;;5034103;28;20221;-72
2021/12/28 01:58:03;;;;;;;16.35;15.27;;;8.00;92.90;;;;;;5034051;28;20288;-72
2021/12/28 02:00:30;;;;;;;16.92;15.90;;;8.00;93.00;;;;;;5033768;28;20221;-72
2021/12/28 02:02:57;;;;;;;17.42;16.23;;;7.90;93.30;;;;;;5034119;28;20568;-72
2021/12/28 02:05:24;;;;;;;16.45;15.50;;;7.90;93.40;;;;;;5033322;28;20287;-72
2021/12/28 02:07:51;;;;;;;16.42;15.40;;;7.90;93.40;;;;;;5033768;28;20566;-72
2021/12/28 02:10:18;;;;;;;16.08;15.00;;;8.00;93.40;;;;;;5033709;28;20312;-72
2021/12/28 02:12:45;;;;;;;16.15;15.15;;;8.00;92.90;;;;;;5033926;28;20197;-72
2021/12/28 02:15:15;;;;;;;16.30;15.30;;;8.00;92.70;;;;;;5033730;28;20221;-73
2021/12/28 02:17:43;;;;;;;17.00;15.70;;;8.00;92.70;;;;;;5033727;28;20201;-73
2021/12/28 02:20:14;;;;;;;17.20;16.00;;;8.00;93.00;;;;;;5033232;28;20724;-72
2021/12/28 02:22:41;;;;;;;17.80;16.23;;;8.10;92.60;;;;;;5034029;28;20228;-72
2021/12/28 02:25:10;;;;;;;16.58;15.50;;;8.10;92.60;;;;;;5033499;28;20200;-72
2021/12/28 02:27:37;;;;;;;16.92;15.70;;;8.00;92.30;;;;;;5033476;28;20654;-73
2021/12/28 02:30:07;;;;;;;17.75;16.38;;;8.00;92.70;;;;;;5033113;28;20221;-72
2021/12/28 02:32:34;;;;;;;17.35;15.98;;;7.90;92.90;;;;;;5033372;28;20288;-72
2021/12/28 02:35:01;;;;;;;17.63;16.13;;;7.90;93.50;;;;;;5033293;28;20213;-73
2021/12/28 02:37:29;;;;;;;17.58;16.25;;;7.90;93.60;;;;;;5033454;28;20197;-72
2021/12/28 02:39:56;;;;;;;19.17;16.50;;;8.00;93.30;;;;;;5032824;28;20715;-72
2021/12/28 02:42:24;;;;;;;16.80;15.50;;;8.00;93.20;;;;;;5033270;28;20197;-72
2021/12/28 02:45:00;;;;;;;18.05;16.15;;;8.10;92.60;;;;;;5033023;28;20216;-72
2021/12/28 02:47:28;;;;;;;18.65;16.80;;;8.10;92.30;;;;;;5033098;28;20200;-72
2021/12/28 02:49:55;;;;;;;18.38;16.80;;;8.20;91.80;;;;;;5032869;28;20220;-72
2021/12/28 02:52:22;;;;;;;18.08;16.50;;;8.20;91.30;;;;;;5033310;28;20271;-72
2021/12/28 02:54:50;;;;;;;17.80;15.93;;;8.30;90.90;;;;;;5033024;28;20292;-72
2021/12/28 02:57:17;;;;;;;18.23;16.42;;;8.30;91.00;;;;;;5032886;28;20558;-72
2021/12/28 02:59:49;;;;;;;17.85;16.60;;;8.30;91.10;;;;;;5032727;28;20221;-72
2021/12/28 03:02:16;;;;;;;17.77;16.30;;;8.40;90.70;;;;;;5032995;28;20193;-72
2021/12/28 03:04:44;;;;;;;17.90;16.50;;;8.40;90.50;;;;;;5032926;28;20305;-73
2021/12/28 03:07:11;;;;;;;16.92;15.77;;;8.40;90.20;;;;;;5032861;28;20570;-72
2021/12/28 03:09:39;;;;;;;18.05;16.60;;;8.40;89.60;;;;;;5032600;28;20221;-72
2021/12/28 03:12:10;;;;;;;16.75;15.65;;;8.40;89.90;;;;;;5033022;28;20208;-72
2021/12/28 03:14:37;;;;;;;17.77;16.45;;;8.40;90.00;;;;;;5032788;28;20212;-72
2021/12/28 03:17:05;;;;;;;18.55;17.05;;;8.30;90.60;;;;;;5032671;28;20224;-72
2021/12/28 03:19:32;;;;;;;18.38;16.95;;;8.30;90.50;;;;;;5032522;28;20221;-72
2021/12/28 03:21:59;;;;;;;18.05;16.85;;;8.20;90.50;;;;;;5032659;28;20654;-72
2021/12/28 03:24:26;;;;;;;17.13;16.08;;;8.20;90.90;;;;;;5032574;28;20728;-72
2021/12/28 03:26:53;;;;;;;17.40;15.73;;;8.20;90.80;;;;;;5032603;28;20203;-72
2021/12/28 03:29:22;;;;;;;18.23;16.80;;;8.30;90.40;;;;;;5032439;28;20305;-72
2021/12/28 03:31:49;;;;;;;17.15;16.10;;;8.30;90.70;;;;;;5032556;28;20193;-72
2021/12/28 03:34:17;;;;;;;18.25;16.55;;;8.20;90.60;;;;;;5032523;28;20292;-72
2021/12/28 03:36:44;;;;;;;19.40;17.35;;;8.20;90.90;;;;;;5032435;28;20712;-72
2021/12/28 03:39:11;;;;;;;16.60;15.40;;;8.10;91.10;;;;;;5032218;28;20227;-72
2021/12/28 03:41:39;;;;;;;17.63;16.00;;;8.20;90.90;;;;;;5032254;28;20201;-72
2021/12/28 03:44:07;;;;;;;18.15;17.00;;;8.20;90.80;;;;;;5032598;28;20251;-72
2021/12/28 03:46:35;;;;;;;17.52;16.30;;;8.10;91.20;;;;;;5032337;28;20193;-72
2021/12/28 03:49:03;;;;;;;18.30;17.10;;;8.10;91.10;;;;;;5032311;28;20220;-72
2021/12/28 03:51:30;;;;;;;18.25;17.13;;;8.10;91.10;;;;;;5032191;28;20205;-72
2021/12/28 03:53:57;;;;;;;17.92;16.50;;;8.00;91.30;;;;;;5032443;28;20201;-72
2021/12/28 03:56:24;;;;;;;17.92;16.60;;;7.90;91.50;;;;;;5032343;28;20252;-72
2021/12/28 03:58:52;;;;;;;19.13;17.35;;;7.90;91.90;;;;;;5032167;28;20214;-72
2021/12/28 04:01:23;;;;;;;19.00;17.70;;;7.90;92.10;;;;;;5032277;28;20565;-72
2021/12/28 04:03:52;;;;;;;20.05;18.25;;;7.90;92.10;;;;;;5032495;28;20197;-72
2021/12/28 04:06:20;;;;;;;19.63;18.10;;;7.90;92.20;;;;;;5032517;28;20289;-72
2021/12/28 04:08:48;;;;;;;20.15;18.23;;;7.90;92.10;;;;;;5032191;28;20221;-72
2021/12/28 04:11:26;;;;;;;19.15;18.00;;;8.00;92.00;;;;;;5032063;28;20208;-72
2021/12/28 04:13:56;;;;;;;19.00;17.15;;;8.00;91.70;;;;;;5032275;28;20331;-72
2021/12/28 04:16:23;;;;;;;43.05;18.88;;;8.00;92.20;;;;;;5032228;28;20249;-72
2021/12/28 04:18:52;;;;;;;17.90;16.80;;;8.00;94.20;;;;;;5031993;28;20249;-72
2021/12/28 04:21:19;;;;;;;18.45;17.10;;;8.10;93.20;;;;;;5031945;28;20244;-72
2021/12/28 04:23:47;;;;;;;17.70;16.40;;;8.20;92.20;;;;;;5031959;28;20733;-72
2021/12/28 04:26:14;;;;;;;19.40;17.90;;;8.20;91.30;;;;;;5032102;28;20201;-72
2021/12/28 04:28:42;;;;;;;18.13;16.83;;;8.20;90.60;;;;;;5032541;28;20309;-72
2021/12/28 04:31:09;;;;;;;19.52;18.33;;;8.20;91.00;;;;;;5035541;28;20193;-72
2021/12/28 04:33:37;;;;;;;19.17;17.92;;;8.10;91.90;;;;;;5035638;28;20292;-72
2021/12/28 04:36:08;;;;;;;19.40;17.92;;;8.20;91.50;;;;;;5035700;28;20610;-72
2021/12/28 04:38:35;;;;;;;18.55;17.45;;;8.20;92.00;;;;;;5035475;28;20213;-72
2021/12/28 04:41:02;;;;;;;20.15;18.75;;;8.20;91.50;;;;;;5035176;28;20201;-72
2021/12/28 04:43:29;;;;;;;19.23;17.85;;;8.20;91.40;;;;;;5035464;28;20284;-72
2021/12/28 04:45:56;;;;;;;18.70;17.40;;;8.30;91.10;;;;;;5035235;28;20204;-73
2021/12/28 04:48:23;;;;;;;18.75;17.20;;;8.30;90.80;;;;;;5035305;28;20200;-72
2021/12/28 04:50:50;;;;;;;18.70;17.30;;;8.40;90.40;;;;;;5035239;28;20202;-72
2021/12/28 04:53:19;;;;;;;19.92;18.63;;;8.50;90.10;;;;;;5035316;28;20197;-72
2021/12/28 04:55:48;;;;;;;20.35;18.40;;;8.40;90.20;;;;;;5035340;28;20217;-73
2021/12/28 04:58:15;;;;;;;18.95;17.35;;;8.50;90.40;;;;;;5034964;28;20201;-72
2021/12/28 05:00:44;;;;;;;19.58;18.35;;;8.60;90.10;;;;;;5035168;28;20284;-72
2021/12/28 05:03:11;;;;;;;21.13;19.58;;;8.60;89.80;;;;;;5035274;28;20204;-73
2021/12/28 05:05:39;;;;;;;19.45;18.25;;;8.50;90.30;;;;;;5035203;28;20201;-72
2021/12/28 05:08:07;;;;;;;20.10;18.55;;;8.50;90.40;;;;;;5035104;28;20292;-72
2021/12/28 05:10:35;;;;;;;18.50;17.25;;;8.40;90.80;;;;;;5034704;28;20217;-73
2021/12/28 05:13:03;;;;;;;19.65;18.15;;;8.40;91.00;;;;;;5035047;28;20201;-73
2021/12/28 05:15:31;;;;;;;21.10;19.80;;;8.50;91.20;;;;;;5034624;28;20292;-73
2021/12/28 05:17:57;;;;;;;20.00;18.60;;;8.50;91.10;;;;;;5034909;28;20205;-73
2021/12/28 05:20:24;;;;;;;20.55;18.80;;;8.60;91.60;;;;;;5034731;28;20248;-72
2021/12/28 05:22:52;;;;;;;19.00;17.75;;;8.70;90.70;;;;;;5034920;28;20663;-73
2021/12/28 05:25:18;;;;;;;18.83;17.58;;;8.70;90.40;;;;;;5034696;28;20558;-72
2021/12/28 05:27:47;;;;;;;18.52;17.45;;;8.70;90.60;;;;;;5034643;28;20193;-72
2021/12/28 05:30:14;;;;;;;18.45;17.35;;;8.60;90.80;;;;;;5034341;28;20225;-72
2021/12/28 05:32:42;;;;;;;17.65;16.55;;;8.50;91.90;;;;;;5034746;28;20198;-73
2021/12/28 05:35:10;;;;;;;19.37;18.20;;;8.60;91.70;;;;;;5034567;28;20288;-72
2021/12/28 05:37:37;;;;;;;19.38;17.88;;;8.60;91.30;;;;;;5034369;28;20993;-73
2021/12/28 05:40:05;;;;;;;17.07;15.97;;;8.50;92.50;;;;;;5033351;28;20585;-72
2021/12/28 05:42:32;;;;;;;19.45;18.13;;;8.60;92.00;;;;;;5034253;28;20536;-73
2021/12/28 05:45:00;;;;;;;21.05;19.65;;;8.60;91.80;;;;;;5034284;28;20197;-72
2021/12/28 05:47:27;;;;;;;21.65;20.00;;;8.50;92.00;;;;;;5034259;28;20194;-73
2021/12/28 05:49:54;;;;;;;20.60;19.15;;;8.60;91.80;;;;;;5034013;28;20308;-73
2021/12/28 05:52:21;;;;;;;20.40;19.00;;;8.60;91.60;;;;;;5034293;28;20284;-73
2021/12/28 05:54:48;;;;;;;29.30;21.63;;;8.60;91.90;;;;;;5034205;28;20499;-73
2021/12/28 05:57:15;;;;;;;20.35;18.73;;;8.60;92.10;;;;;;5033941;28;20912;-72
2021/12/28 05:59:42;;;;;;;20.70;19.13;;;8.50;92.60;;;;;;5034018;28;20256;-72
2021/12/28 06:02:11;;;;;;;20.90;19.60;;;8.50;93.30;;;;;;5034239;28;20450;-72
2021/12/28 06:04:38;;;;;;;22.57;20.87;;;8.50;93.10;;;;;;5034081;28;20452;-72
2021/12/28 06:07:05;;;;;;;20.37;18.67;;;8.50;93.10;;;;;;5033864;28;20454;-73
2021/12/28 06:09:32;;;;;;;17.73;16.53;;;8.40;93.20;;;;;;5033617;28;20482;-72
2021/12/28 06:11:59;;;;;;;20.97;18.77;;;8.50;93.20;;;;;;5033911;28;20452;-73
2021/12/28 06:14:26;;;;;;;19.43;18.33;;;8.50;93.70;;;;;;5033775;28;20460;-73
2021/12/28 06:16:54;;;;;;;21.00;19.80;;;8.50;93.60;;;;;;5033513;28;20486;-72
2021/12/28 06:19:22;;;;;;;20.50;19.20;;;8.50;93.60;;;;;;5033407;28;20474;-73
2021/12/28 06:21:49;;;;;;;20.90;19.60;;;8.60;93.20;;;;;;5033592;28;21012;-72
2021/12/28 06:24:16;;;;;;;21.37;19.87;;;8.60;93.10;;;;;;5033538;28;20944;-72
2021/12/28 06:26:43;;;;;;;20.00;18.50;;;8.60;92.90;;;;;;5033155;28;20474;-72
2021/12/28 06:29:11;;;;;;;20.23;18.80;;;8.50;93.20;;;;;;5033316;28;20985;-72
2021/12/28 06:31:38;;;;;;;20.38;19.05;;;8.50;93.40;;;;;;5033569;28;20455;-72
2021/12/28 06:34:07;;;;;;;20.30;19.00;;;8.50;93.90;;;;;;5033341;28;20285;-72
2021/12/28 06:36:35;;;;;;;21.43;19.13;;;8.50;94.00;;;;;;5033362;28;20559;-72
2021/12/28 06:39:03;;;;;;;17.87;16.70;;;8.50;94.80;;;;;;5033180;28;20476;-72
2021/12/28 06:41:30;;;;;;;21.90;19.93;;;8.60;93.80;;;;;;5032848;28;20562;-72
2021/12/28 06:43:57;;;;;;;18.70;17.70;;;8.70;93.60;;;;;;5033261;28;20448;-72
2021/12/28 06:46:24;;;;;;;20.23;18.90;;;8.70;93.10;;;;;;5033000;28;20194;-72
2021/12/28 06:48:51;;;;;;;18.70;17.53;;;8.70;93.20;;;;;;5033034;28;20487;-72
2021/12/28 06:51:18;;;;;;;19.83;18.83;;;8.80;92.70;;;;;;5032753;28;20944;-73
2021/12/28 06:53:47;;;;;;;19.80;18.80;;;8.80;92.50;;;;;;5033199;28;20452;-72
2021/12/28 06:56:13;;;;;;;20.73;19.63;;;8.90;92.60;;;;;;5032877;28;20459;-73
2021/12/28 06:58:41;;;;;;;19.07;17.97;;;9.00;91.70;;;;;;5032947;28;20476;-72
2021/12/28 07:01:09;;;;;;;19.40;17.40;;;9.00;91.50;;;;;;5032894;28;20460;-72
2021/12/28 07:03:36;;;;;;;17.60;16.70;;;9.00;91.00;;;;;;5033150;28;20513;-72
2021/12/28 07:06:04;;;;;;;18.50;17.60;;;9.00;91.10;;;;;;5033058;28;20201;-72
2021/12/28 07:08:31;;;;;;;19.13;18.15;;;9.10;90.90;;;;;;5032708;28;20255;-72
2021/12/28 07:10:59;;;;;;;16.77;15.98;;;9.10;90.30;;;;;;5032811;28;20670;-72
2021/12/28 07:13:26;;;;;;;17.40;16.50;;;9.10;90.40;;;;;;5032773;28;20205;-72
2021/12/28 07:15:53;;;;;;;16.87;16.03;;;9.10;90.40;;;;;;5032478;28;20235;-72
2021/12/28 07:18:20;;;;;;;16.85;16.05;;;9.00;90.50;;;;;;5032548;28;20480;-72
2021/12/28 07:20:48;;;;;;;15.98;15.25;;;9.10;90.20;;;;;;5032582;28;20198;-72
2021/12/28 07:23:15;;;;;;;15.88;15.18;;;9.20;89.90;;;;;;5032757;28;20603;-72
2021/12/28 07:25:42;;;;;;;17.40;16.50;;;9.20;89.70;;;;;;5032694;28;20208;-72
2021/12/28 07:28:11;;;;;;;16.90;16.00;;;9.20;89.90;;;;;;5032623;28;20197;-72
2021/12/28 07:30:38;;;;;;;18.88;17.98;;;9.20;90.10;;;;;;5032657;28;20199;-72
2021/12/28 07:33:05;;;;;;;16.53;15.73;;;9.40;89.60;;;;;;5032767;28;20193;-72
2021/12/28 07:35:32;;;;;;;17.63;16.83;;;9.40;89.20;;;;;;5032566;28;20458;-72
2021/12/28 07:37:59;;;;;;;16.70;15.80;;;9.50;88.70;;;;;;5032498;28;20221;-72
2021/12/28 07:40:26;;;;;;;17.97;16.87;;;9.50;88.90;;;;;;5032111;28;20562;-72
2021/12/28 07:42:53;;;;;;;17.53;16.53;;;9.50;88.50;;;;;;5032490;28;20929;-72
2021/12/28 07:45:22;;;;;;;17.07;16.27;;;9.50;88.50;;;;;;5032363;28;20460;-72
2021/12/28 07:47:49;;;;;;;17.90;17.10;;;9.60;88.60;;;;;;5032568;28;20444;-72
2021/12/28 07:50:18;;;;;;;16.63;15.93;;;9.70;88.20;;;;;;5032179;28;20476;-72
2021/12/28 07:52:46;;;;;;;18.13;17.23;;;9.80;87.70;;;;;;5032424;28;20451;-73
2021/12/28 07:55:14;;;;;;;18.40;17.50;;;9.80;87.60;;;;;;5032356;28;20458;-73
2021/12/28 07:57:42;;;;;;;19.93;18.93;;;9.90;87.30;;;;;;5032214;28;20841;-73
2021/12/28 08:00:12;;;;;;;16.63;15.83;;;9.90;87.00;;;;;;5032514;28;20836;-72
2021/12/28 08:02:42;;;;;;;18.93;18.03;;;10.00;86.60;;;;;;5032956;28;20523;-72
2021/12/28 08:05:10;;;;;;;17.60;16.80;;;10.00;87.00;;;;;;5035328;28;20451;-72
2021/12/28 08:07:37;;;;;;;17.70;16.80;;;10.00;87.00;;;;;;5036341;28;20469;-72
2021/12/28 08:10:05;;;;;;;18.90;18.00;;;10.10;86.90;;;;;;5036031;28;20484;-72
2021/12/28 08:12:32;;;;;;;19.30;18.40;;;10.10;86.70;;;;;;5036061;28;21008;-73
2021/12/28 08:14:59;;;;;;;18.43;17.53;;;10.10;87.10;;;;;;5036192;28;20957;-73
2021/12/28 08:17:28;;;;;;;17.20;16.40;;;10.10;87.10;;;;;;5035890;28;20483;-72
2021/12/28 08:19:57;;;;;;;17.50;16.70;;;10.10;87.60;;;;;;5035729;28;20514;-73
2021/12/28 08:22:24;;;;;;;16.20;15.50;;;10.20;87.30;;;;;;5035945;28;20527;-73
2021/12/28 08:24:51;;;;;;;18.00;17.30;;;10.10;87.50;;;;;;5035800;28;20477;-73
2021/12/28 08:27:18;;;;;;;16.20;15.50;;;10.10;88.00;;;;;;5035873;28;20451;-73
2021/12/28 08:29:45;;;;;;;19.00;18.20;;;10.20;87.80;;;;;;5035581;28;21007;-73
2021/12/28 08:32:11;;;;;;;18.50;17.40;;;10.20;87.70;;;;;;5035686;28;20954;-73
2021/12/28 08:34:38;;;;;;;16.90;16.10;;;10.20;88.00;;;;;;5035637;28;20538;-73
2021/12/28 08:37:07;;;;;;;16.87;16.07;;;10.20;88.10;;;;;;5035488;28;21019;-73
2021/12/28 08:39:34;;;;;;;17.20;16.40;;;10.20;88.00;;;;;;5035128;28;20545;-72
2021/12/28 08:42:00;;;;;;;19.07;18.17;;;10.30;88.00;;;;;;5035493;28;20961;-73
2021/12/28 08:44:28;;;;;;;17.63;16.83;;;10.40;87.60;;;;;;5035737;28;20586;-73
2021/12/28 08:46:55;;;;;;;18.30;17.40;;;10.40;87.90;;;;;;5035265;28;20980;-73
2021/12/28 08:49:25;;;;;;;17.70;17.00;;;10.50;87.50;;;;;;5035173;28;20482;-73
2021/12/28 08:51:52;;;;;;;18.50;17.70;;;10.50;87.50;;;;;;5035476;28;20458;-73
2021/12/28 08:54:21;;;;;;;18.73;17.90;;;10.60;87.10;;;;;;5035251;28;20937;-73
2021/12/28 08:56:50;;;;;;;19.00;18.10;;;10.70;86.70;;;;;;5035125;28;20478;-73
2021/12/28 08:59:17;;;;;;;17.50;16.70;;;10.70;86.50;;;;;;5035111;28;20872;-72
2021/12/28 09:01:44;;;;;;;19.57;18.70;;;10.90;86.50;;;;;;5035294;28;20450;-72
2021/12/28 09:04:11;;;;;;;17.63;16.83;;;10.90;86.00;;;;;;5035057;28;20458;-72
2021/12/28 09:06:38;;;;;;;18.03;17.23;;;11.00;85.50;;;;;;5035128;28;20460;-72
2021/12/28 09:09:05;;;;;;;18.33;17.53;;;10.90;85.50;;;;;;5034912;28;20985;-72
2021/12/28 09:11:33;;;;;;;17.03;16.23;;;11.00;85.40;;;;;;5034844;28;20613;-72
2021/12/28 09:14:00;;;;;;;18.03;17.23;;;10.90;85.60;;;;;;5034983;28;20456;-72
2021/12/28 09:16:27;;;;;;;17.40;16.60;;;11.00;85.60;;;;;;5034584;28;20462;-73
2021/12/28 09:18:54;;;;;;;17.83;17.00;;;11.10;85.50;;;;;;5034774;28;20491;-72
2021/12/28 09:21:21;;;;;;;17.63;16.83;;;11.10;85.70;;;;;;5034717;28;20540;-73
2021/12/28 09:23:48;;;;;;;17.30;16.50;;;11.20;85.10;;;;;;5034731;28;20456;-72
2021/12/28 09:26:15;;;;;;;17.70;16.90;;;11.20;85.90;;;;;;5034840;28;20454;-72
2021/12/28 09:28:43;;;;;;;17.50;16.70;;;11.20;85.60;;;;;;5034646;28;20468;-72
2021/12/28 09:31:10;;;;;;;19.03;18.23;;;11.30;85.50;;;;;;5034432;28;20463;-72
2021/12/28 09:33:38;;;;;;;19.17;18.27;;;11.40;84.90;;;;;;5034515;28;20531;-73
2021/12/28 09:36:09;;;;;;;18.37;17.60;;;11.40;84.90;;;;;;5034627;28;20458;-73
2021/12/28 09:38:36;;;;;;;17.37;16.57;;;11.50;84.70;;;;;;5034433;28;20479;-72
2021/12/28 09:41:04;;;;;;;14.07;13.53;;;11.60;84.90;;;;;;5034221;28;20456;-72
2021/12/28 09:43:31;;;;;;;17.63;16.73;;;11.60;84.90;;;;;;5034288;28;20455;-72
2021/12/28 09:45:59;;;;;;;16.80;16.00;;;11.60;85.00;;;;;;5034204;28;20448;-72
2021/12/28 09:48:26;;;;;;;18.23;17.33;;;11.70;84.70;;;;;;5034359;28;20799;-72
2021/12/28 09:50:53;;;;;;;18.37;17.47;;;11.70;84.70;;;;;;5034328;28;20561;-72
2021/12/28 09:53:20;;;;;;;17.57;16.77;;;11.70;84.90;;;;;;5034317;28;20448;-72
2021/12/28 09:55:46;;;;;;;16.80;16.00;;;11.70;84.80;;;;;;5034240;28;20463;-72
2021/12/28 09:58:13;;;;;;;17.00;16.00;;;11.80;84.80;;;;;;5034101;28;20472;-72
2021/12/28 10:00:40;;;;;;;18.07;17.20;;;11.70;85.30;;;;;;5034332;28;20460;-72
2021/12/28 10:03:09;;;;;;;18.70;17.80;;;11.80;85.20;;;;;;5034270;28;20456;-72
2021/12/28 10:05:36;;;;;;;19.10;18.10;;;11.90;84.50;;;;;;5033975;28;20456;-73
2021/12/28 10:08:06;;;;;;;18.00;17.10;;;12.00;85.00;;;;;;5034158;28;20452;-73
2021/12/28 10:10:36;;;;;;;18.80;17.90;;;12.10;84.20;;;;;;5033655;28;20566;-73
2021/12/28 10:13:04;;;;;;;19.23;18.37;;;12.20;84.00;;;;;;5033877;28;20514;-73
2021/12/28 10:15:34;;;;;;;17.90;17.10;;;12.20;83.70;;;;;;5033629;28;20452;-73
2021/12/28 10:18:03;;;;;;;20.33;19.33;;;12.30;83.70;;;;;;5033702;28;20558;-73
2021/12/28 10:20:34;;;;;;;18.23;17.33;;;12.20;84.30;;;;;;5033524;28;20554;-73
2021/12/28 10:23:03;;;;;;;18.70;17.80;;;12.40;84.40;;;;;;5033714;28;20462;-73
2021/12/28 10:25:31;;;;;;;19.10;18.20;;;12.50;83.70;;;;;;5033497;28;20494;-73
2021/12/28 10:28:01;;;;;;;19.20;18.30;;;12.60;83.50;;;;;;5033237;28;20459;-73
2021/12/28 10:30:30;;;;;;;18.07;17.27;;;12.60;82.90;;;;;;5033244;28;20476;-73
2021/12/28 10:32:59;;;;;;;19.20;18.30;;;12.60;83.10;;;;;;5033527;28;20458;-73
2021/12/28 10:35:29;;;;;;;18.60;17.70;;;12.60;83.30;;;;;;5033452;28;20458;-73
2021/12/28 10:37:59;;;;;;;18.23;17.33;;;12.60;83.20;;;;;;5033260;28;20508;-73
2021/12/28 10:40:29;;;;;;;17.90;17.00;;;12.70;83.40;;;;;;5033211;28;20483;-73
2021/12/28 10:43:08;;;;;;;18.73;17.83;;;12.80;83.40;;;;;;5033548;28;20531;-73
2021/12/28 10:45:40;;;;;;;19.60;18.60;;;12.90;83.10;;;;;;5033169;28;20459;-73
2021/12/28 10:48:16;;;;;;;18.90;18.00;;;13.10;82.90;;;;;;5033198;28;20463;-72
2021/12/28 10:50:46;;;;;;;19.07;18.13;;;13.20;82.70;;;;;;5033222;28;20798;-73
2021/12/28 10:53:34;;;;;;;18.40;17.50;;;13.20;82.80;;;;;;5033050;28;20921;-73
2021/12/28 10:56:02;;;;;;;19.17;18.03;;;13.20;83.10;;;;;;5033119;28;20458;-73
2021/12/28 10:58:32;;;;;;;18.23;17.33;;;13.10;83.30;;;;;;5032847;28;20502;-73
2021/12/28 11:01:08;;;;;;;20.10;19.10;;;13.10;83.20;;;;;;5032881;28;20497;-73
2021/12/28 11:03:37;;;;;;;18.83;17.93;;;13.20;83.20;;;;;;5033034;28;20451;-73
2021/12/28 11:06:14;;;;;;;20.53;19.43;;;13.30;82.80;;;;;;5032931;28;20458;-73
2021/12/28 11:08:44;;;;;;;19.40;18.50;;;13.30;82.70;;;;;;5032954;28;20472;-73
2021/12/28 11:11:14;;;;;;;18.90;18.00;;;13.40;82.60;;;;;;5032887;28;20458;-73
2021/12/28 11:13:41;;;;;;;18.77;17.87;;;13.40;83.10;;;;;;5032836;28;20742;-73
2021/12/28 11:16:11;;;;;;;18.30;17.40;;;13.40;82.90;;;;;;5032741;28;20899;-73
2021/12/28 11:18:39;;;;;;;19.27;18.27;;;13.40;82.90;;;;;;5032640;28;20518;-73
2021/12/28 11:21:16;;;;;;;18.50;17.60;;;13.40;82.60;;;;;;5032659;28;20530;-73
2021/12/28 11:23:46;;;;;;;19.13;18.23;;;13.40;82.70;;;;;;5032682;28;20888;-73
2021/12/28 11:26:19;;;;;;;18.90;18.00;;;13.30;83.00;;;;;;5032647;28;20447;-73
2021/12/28 11:28:57;;;;;;;21.20;20.20;;;13.30;83.00;;;;;;5032629;28;20472;-73
2021/12/28 11:31:26;;;;;;;18.60;17.70;;;13.30;82.80;;;;;;5032499;28;20452;-73
2021/12/28 11:33:57;;;;;;;18.50;17.70;;;13.40;82.90;;;;;;5032486;28;20545;-73
2021/12/28 11:36:26;;;;;;;19.00;18.10;;;13.50;82.70;;;;;;5032590;28;20456;-73
2021/12/28 11:38:56;;;;;;;18.53;17.60;;;13.50;82.70;;;;;;5033504;28;21060;-73
2021/12/28 11:41:25;;;;;;;19.80;18.80;;;13.60;82.50;;;;;;5036395;28;20965;-73
2021/12/28 11:43:53;;;;;;;18.83;17.83;;;13.70;82.00;;;;;;5036524;28;20848;-73
2021/12/28 11:46:20;;;;;;;19.50;18.60;;;13.60;82.20;;;;;;5036524;28;20456;-73
2021/12/28 11:48:47;;;;;;;20.87;19.77;;;13.60;82.30;;;;;;5036440;28;20474;-73
2021/12/28 11:51:14;;;;;;;21.00;19.83;;;13.70;82.30;;;;;;5036315;28;20547;-73
2021/12/28 11:53:44;;;;;;;18.83;17.80;;;13.70;82.40;;;;;;5036520;28;20806;-73
2021/12/28 11:56:14;;;;;;;20.43;19.43;;;13.60;82.70;;;;;;5036305;28;20487;-73
2021/12/28 11:59:03;;;;;;;18.17;17.27;;;13.60;82.70;;;;;;5036379;28;20487;-72
2021/12/28 12:01:55;;;;;;;19.00;17.90;;;13.70;82.40;;;;;;5028415;28;20463;-73
2021/12/28 12:04:58;;;;;;;18.43;17.53;;;13.70;82.30;;;;;;5036205;28;20473;-73
2021/12/28 12:07:33;;;;;;;20.47;19.50;;;13.70;82.50;;;;;;5036258;28;20527;-73
2021/12/28 12:10:08;;;;;;;18.50;17.50;;;13.60;83.60;;;;;;5035996;28;20495;-73
2021/12/28 12:12:47;;;;;;;19.83;18.73;;;13.50;83.80;;;;;;5036294;28;20473;-73
2021/12/28 12:15:16;;;;;;;19.90;18.90;;;13.50;84.30;;;;;;5036059;28;20454;-73
2021/12/28 12:17:45;;;;;;;19.10;18.20;;;13.50;84.30;;;;;;5036024;28;20535;-73
2021/12/28 12:20:24;;;;;;;19.33;18.40;;;13.50;85.00;;;;;;5035735;28;20555;-73
2021/12/28 12:22:52;;;;;;;20.30;19.23;;;13.50;85.20;;;;;;5036035;28;20465;-73
2021/12/28 12:25:22;;;;;;;19.80;18.80;;;13.50;85.50;;;;;;5035816;28;20551;-73
2021/12/28 12:27:52;;;;;;;18.50;17.60;;;13.60;85.60;;;;;;5035869;28;20953;-73
2021/12/28 12:30:47;;;;;;;19.43;18.50;;;13.50;86.00;;;;;;5035419;28;20476;-73
2021/12/28 12:33:15;;;;;;;19.30;18.40;;;13.40;86.60;;;;;;5001076;28;20525;-73
2021/12/28 12:35:50;;;;;;;18.23;17.33;;;13.40;86.40;;;;;;5035650;28;20491;-73
2021/12/28 12:38:36;;;;;;;19.00;18.00;;;13.40;86.90;;;;;;5035745;28;20470;-73
2021/12/28 12:41:07;;;;;;;19.20;18.20;;;13.50;86.40;;;;;;5035227;28;20499;-73
2021/12/28 12:43:48;;;;;;;18.57;17.67;;;13.60;86.00;;;;;;5035606;28;20483;-73